Ballinafad, Ireland
Current Conditions -  °F | °C
As of 9:30 AM on Friday 31 Oct 2014 (Local Time) from EISG Reporting Station
Moderate Rain Moderate Rain  
Wind Chill: 55°   Ceiling: 2300
Heat Index: 55°   Visibility: 2.1mi
Dew Point: 55°   Wind: 3mph
Humidity: 100%   Direction: 240°WSW
Pressure: 29.59"   Gusts: NA
Location:  54.03°N, 8.33°W
Report Text: EISG 310930Z 24003KT 3500 RA FEW015 OVC023 13/13 Q1002
Loading
Personal Weather Stations






























Interactive Weather Map
Tropical Storm Tracking
New forecast layout! Learn more

10-Day Weather Forecast

Advertisements
Track Severe Weather on mobile